»·PEaware :: UAL851 KSFO-KLAS

UAL851 :: KSFO-KLAS

FLIGHT INFORMATION

Flight Status: Arrived
Operator:
United Airlines
More flights by this operator :: More flights under this callsign
Pilot: Ben F. (13029)
Aircraft: BOEING 737-700
(B737)
More flights by this aircraft type
Origin: KSFO San Francisco Intl
United States
Destination: KLAS McCarran Intl
United States
More flights between these airports :: More routes between these airports
Route: +SSTIK4 NTELL Q162 ESSAA BTY SUNST4
File this flight plan on PilotEdge
Remarks: RMK / SIMBRIEF
Altitude:
(Current/Filed)
37,000ft
Speed:
(Current/Filed)
442kts
Departed: 01-Jan-20 11:53 AM
Arrived: 01-Jan-20 01:08 PM
Distance/Time
Traveled:
359nm/1:15
Distance/Time
To Go:
Arrived

Flight Plot

Page will automatically refresh every two minutes.

Flight plan parsing failed; only flown route is shown


Map Options




Map Legend


Flown Route
Filed Route
Departure Airport
Arrival Airport
Navaid (VOR, NDB)
Fix

Horizontal Profiles

Position Reports

Time Latitude Longitude Heading Altitude Ground
Speed
01-Jan-20 11:11 37.618671 -122.388061 158 30ft 0kts
01-Jan-20 11:12 37.618671 -122.388061 158 30ft 0kts
01-Jan-20 11:13 37.618671 -122.388061 158 30ft 0kts
01-Jan-20 11:14 37.618671 -122.388061 158 30ft 0kts
01-Jan-20 11:14 37.618671 -122.388061 158 30ft 0kts
01-Jan-20 11:16 37.618671 -122.388061 158 30ft 0kts
01-Jan-20 11:17 37.618671 -122.388061 158 30ft 0kts
01-Jan-20 11:17 37.618671 -122.388061 158 30ft 0kts
01-Jan-20 11:19 37.618671 -122.388061 158 30ft 0kts
01-Jan-20 11:20 37.618671 -122.388061 158 30ft 0kts
01-Jan-20 11:20 37.618671 -122.388061 158 30ft 0kts
01-Jan-20 11:22 37.618671 -122.388061 158 30ft 0kts
01-Jan-20 11:22 37.618671 -122.388061 158 30ft 0kts
01-Jan-20 11:23 37.618671 -122.388061 158 30ft 0kts
01-Jan-20 11:24 37.618671 -122.388061 158 30ft 0kts
01-Jan-20 11:25 37.618671 -122.388061 158 30ft 0kts
01-Jan-20 11:26 37.618671 -122.388061 158 30ft 0kts
01-Jan-20 11:27 37.618671 -122.388061 158 30ft 0kts
01-Jan-20 11:28 37.618671 -122.388061 158 30ft 0kts
01-Jan-20 11:29 37.618671 -122.388061 158 30ft 0kts
01-Jan-20 11:30 37.618671 -122.388061 158 30ft 0kts
01-Jan-20 11:31 37.618671 -122.388061 158 30ft 0kts
01-Jan-20 11:32 37.618671 -122.388061 158 30ft 0kts
01-Jan-20 11:33 37.618671 -122.388061 158 30ft 0kts
01-Jan-20 11:34 37.618671 -122.388061 158 30ft 0kts
01-Jan-20 11:35 37.618671 -122.388061 158 30ft 0kts
01-Jan-20 11:36 37.618671 -122.388061 158 31ft 0kts
01-Jan-20 11:37 37.618671 -122.388061 158 31ft 0kts
01-Jan-20 11:38 37.618779 -122.388126 141 31ft 2kts
01-Jan-20 11:39 37.618928 -122.388810 65 31ft 2kts
01-Jan-20 11:40 37.618690 -122.389115 28 30ft 0kts
01-Jan-20 11:41 37.618690 -122.389115 28 30ft 0kts
01-Jan-20 11:42 37.618690 -122.389115 28 30ft 0kts
01-Jan-20 11:43 37.618690 -122.389114 28 30ft 0kts
01-Jan-20 11:44 37.619462 -122.389893 294 30ft 5kts
01-Jan-20 11:45 37.620107 -122.391449 299 30ft 0kts
01-Jan-20 11:46 37.621363 -122.391627 27 30ft 13kts
01-Jan-20 11:47 37.621699 -122.386875 118 30ft 17kts
01-Jan-20 11:48 37.618668 -122.380050 140 30ft 25kts
01-Jan-20 11:49 37.612452 -122.382395 207 30ft 24kts
01-Jan-20 11:50 37.609117 -122.383485 123 30ft 0kts
01-Jan-20 11:51 37.608897 -122.383035 121 30ft 10kts
01-Jan-20 11:52 37.610870 -122.380986 27 29ft 65kts
01-Jan-20 11:53 37.650699 -122.351765 27 1608ft 201kts
01-Jan-20 11:54 37.698455 -122.354280 289 3385ft 201kts
01-Jan-20 11:55 37.662066 -122.401880 205 5922ft 230kts
01-Jan-20 11:56 37.601893 -122.427340 205 8671ft 244kts
01-Jan-20 11:57 37.535382 -122.455049 196 10949ft 305kts
01-Jan-20 11:58 37.453504 -122.413602 131 14120ft 348kts
01-Jan-20 11:59 37.404823 -122.305740 101 17004ft 366kts
01-Jan-20 12:00 37.377594 -122.179206 99 19724ft 385kts
01-Jan-20 12:01 37.348580 -122.045913 98 22204ft 404kts
01-Jan-20 12:02 37.318324 -121.906125 97 24449ft 422kts
01-Jan-20 12:03 37.287024 -121.760723 96 26579ft 437kts
01-Jan-20 12:04 37.255203 -121.612488 95 28826ft 440kts
01-Jan-20 12:05 37.223566 -121.463212 94 30218ft 461kts
01-Jan-20 12:06 37.189902 -121.304264 94 31740ft 477kts
01-Jan-20 12:07 37.155546 -121.141207 93 33188ft 489kts
01-Jan-20 12:08 37.121014 -120.975962 92 34759ft 496kts
01-Jan-20 12:09 37.086200 -120.808139 92 36223ft 502kts
01-Jan-20 12:10 37.050967 -120.637407 93 37245ft 511kts
01-Jan-20 12:11 37.014651 -120.459513 94 37258ft 546kts
01-Jan-20 12:12 36.976270 -120.270727 95 37244ft 570kts
01-Jan-20 12:13 36.937410 -120.078085 95 37241ft 573kts
01-Jan-20 12:14 36.924495 -119.886081 74 37241ft 541kts
01-Jan-20 12:15 36.958497 -119.709741 58 37235ft 513kts
01-Jan-20 12:16 36.999701 -119.538551 64 37274ft 510kts
01-Jan-20 12:17 37.056828 -119.396946 51 37370ft 470kts
01-Jan-20 12:18 37.108393 -119.238693 54 37356ft 504kts
01-Jan-20 12:19 37.161713 -119.073478 54 37320ft 516kts
01-Jan-20 12:20 37.215705 -118.907036 53 37282ft 518kts
01-Jan-20 12:21 37.263201 -118.740996 59 37258ft 533kts
01-Jan-20 12:22 37.292042 -118.547702 69 37245ft 554kts
01-Jan-20 12:23 37.307566 -118.366870 67 37259ft 486kts
01-Jan-20 12:24 37.322505 -118.202392 67 37283ft 479kts
01-Jan-20 12:25 37.338170 -118.031151 68 37334ft 504kts
01-Jan-20 12:26 37.344591 -117.855832 77 37377ft 524kts
01-Jan-20 12:27 37.330338 -117.668070 83 37431ft 536kts
01-Jan-20 12:28 37.310721 -117.482605 90 37538ft 534kts
01-Jan-20 12:29 37.267309 -117.304806 103 37188ft 544kts
01-Jan-20 12:30 37.190857 -117.135605 119 36811ft 566kts
01-Jan-20 12:31 37.088025 -116.985044 131 34257ft 563kts
01-Jan-20 12:32 36.967959 -116.866345 145 31680ft 550kts
01-Jan-20 12:33 36.841648 -116.764986 141 27040ft 535kts
01-Jan-20 12:34 36.734621 -116.648921 130 24041ft 468kts
01-Jan-20 12:35 36.644305 -116.525971 126 24046ft 485kts
01-Jan-20 12:36 36.555208 -116.399418 126 24049ft 486kts
01-Jan-20 12:37 36.466790 -116.273628 126 24044ft 486kts
01-Jan-20 12:38 36.377948 -116.148978 127 22725ft 465kts
01-Jan-20 12:39 36.294985 -116.032774 127 19898ft 438kts
01-Jan-20 12:40 36.217013 -115.922809 123 16618ft 412kts
01-Jan-20 12:41 36.171179 -115.809893 104 15778ft 340kts
01-Jan-20 12:42 36.136958 -115.702603 105 14571ft 332kts
01-Jan-20 12:43 36.103235 -115.597863 105 13498ft 317kts
01-Jan-20 12:44 36.071762 -115.501017 105 12330ft 298kts
01-Jan-20 12:45 36.041234 -115.406847 105 11163ft 290kts
01-Jan-20 12:46 36.026046 -115.312164 87 10311ft 275kts
01-Jan-20 12:47 36.019730 -115.219309 89 9223ft 262kts
01-Jan-20 12:48 36.013816 -115.133338 90 8128ft 244kts
01-Jan-20 12:49 36.008328 -115.048918 90 8036ft 248kts
01-Jan-20 12:50 36.003196 -114.963136 92 8022ft 251kts
01-Jan-20 12:51 35.998240 -114.880481 92 8019ft 251kts
01-Jan-20 12:52 35.992703 -114.791060 93 8020ft 251kts
01-Jan-20 12:53 35.987328 -114.711503 92 8059ft 206kts
01-Jan-20 12:54 35.984420 -114.641245 72 8009ft 202kts
01-Jan-20 12:55 36.023268 -114.602833 355 8014ft 181kts
01-Jan-20 12:56 36.061968 -114.634190 297 8019ft 171kts
01-Jan-20 12:57 36.070370 -114.692105 277 8020ft 172kts
01-Jan-20 12:58 36.072728 -114.744654 274 8030ft 130kts
01-Jan-20 12:59 36.073276 -114.789288 273 7570ft 130kts
01-Jan-20 13:00 36.073509 -114.833861 273 6881ft 130kts
01-Jan-20 13:01 36.073617 -114.878481 273 6146ft 130kts
01-Jan-20 13:02 36.073678 -114.923377 273 5404ft 130kts
01-Jan-20 13:03 36.073713 -114.968102 273 4673ft 131kts
01-Jan-20 13:04 36.073731 -115.013309 272 3942ft 132kts
01-Jan-20 13:05 36.073467 -115.058861 272 3219ft 134kts
01-Jan-20 13:06 36.073677 -115.104474 270 2538ft 137kts
01-Jan-20 13:07 36.073638 -115.140860 269 2118ft 24kts
01-Jan-20 13:08 36.074388 -115.145182 295 2118ft 3kts
01-Jan-20 13:09 36.077958 -115.147070 339 2118ft 13kts
01-Jan-20 13:10 36.078530 -115.142645 27 2118ft 16kts
01-Jan-20 13:11 36.083409 -115.140922 73 2118ft 13kts
01-Jan-20 13:12 36.083127 -115.140047 131 2118ft 0kts
01-Jan-20 13:13 36.083111 -115.140026 132 2118ft 0kts
01-Jan-20 13:14 36.083111 -115.140026 132 2118ft 0kts
01-Jan-20 13:15 36.083111 -115.140026 132 2118ft 0kts
01-Jan-20 13:16 36.083111 -115.140026 132 2118ft 0kts

Navigation Log

Ident Type
Flight plan parsing failed, navigation log unavailable